トロント/ピアソン の空港の天気 - METARとTAF

トロント・ピアソン国際空港 ( CYYZ / YYZ ) - カナダ オンタリオ州トロント
飛行場実況気象(Metar)
観測時間01/19 20:00 EST (01/20 01:00 UTC)
風向・風速南 3m/s
視程10km以上
天気現象
全天を覆う雲 雲底高度 370m
気温2℃
湿度81%
気圧1016.5hPa
METARCYYZ 200100Z 19005KT 130V200 8SM OVC012 02/M01 A2999 RMK SC8 SLP165
過去の天気等 Google飛行場航空写真 Wunderground天気予報

過去48時間のMETAR

飛行場予報(TAF)
発表時間: 1/19 18:40 EST (1/19 23:40 UTC)
予報対象時間: 19日19時 EST ~ 21日1時 EST
風向・風速不定 2m/s
視程10km以上
全天を覆う雲 雲底高度 400m
19日19時 EST ~ 19日23時 EST に一時的に
視程8,050m
天気現象もや
19日19時 EST から 確率 30% で
全天を覆う雲 雲底高度 270m
19日23時 EST から
風向・風速東 2m/s
視程10km以上
全天を覆う雲 雲底高度 300m
19日23時 EST ~ 20日7時 EST に一時的に
視程6,440m
天気現象もや
全天を覆う雲 雲底高度 240m
20日7時 EST から
風向・風速北東 3m/s
視程4,830m
天気現象もや
全天を覆う雲 雲底高度 180m
20日7時 EST から 確率 30% で
視程800m
天気現象
20日11時 EST から
風向・風速北東 4m/s
視程10km以上
天気現象もや
少しの雲 雲底高度 240m
全天の8割程度の雲 雲底高度 4,570m
20日14時 EST から
風向・風速東北東 5m/s
視程10km以上
少しの雲 雲底高度 240m
全天を覆う雲 雲底高度 2,130m
20日16時 EST から
風向・風速東北東 5m/s
視程6,440m
天気現象弱い雨 もや
全天の8割程度の雲 雲底高度 180m
全天を覆う雲 雲底高度 910m
20日20時 EST から
風向・風速東北東 4m/s
視程8,850m
天気現象弱い霧雨 もや
全天を覆う雲 雲底高度 90m
TAF CYYZ 192340Z 2000/2106 VRB03KT P6SM OVC013
TEMPO 2000/2004 5SM BR
PROB30 2000/2004 OVC009
FM200400 09003KT P6SM OVC010
TEMPO 2004/2012 4SM BR OVC008
FM201200 05006KT 3SM BR OVC006
PROB30 2012/2015 1/2SM FG
FM201600 05007KT 6SM BR FEW008 BKN150
FM201900 07010KT P6SM FEW008 OVC070
FM202100 07010KT 4SM -RA BR BKN006 OVC030
FM210100 07007KT 11/2SM -DZ BR OVC003 RMK NXT FCST BY 200300Z